createdAt,value
2019-03-20T00:00:02.420Z,48.2
2019-03-20T00:05:02.433Z,48.7
2019-03-20T00:10:01.837Z,48.2
2019-03-20T00:15:01.929Z,48.7
2019-03-20T00:20:02.260Z,48.2
2019-03-20T00:25:02.071Z,48.7
2019-03-20T00:30:02.083Z,48.2
2019-03-20T00:35:01.978Z,48.7
2019-03-20T00:40:02.439Z,48.7
2019-03-20T00:45:02.401Z,48.7
2019-03-20T00:50:02.539Z,48.7
2019-03-20T00:55:02.372Z,48.7
2019-03-20T01:00:02.530Z,48.7
2019-03-20T01:05:12.106Z,48.7
2019-03-20T01:10:01.614Z,48.7
2019-03-20T01:15:01.546Z,48.7
2019-03-20T01:20:01.599Z,48.7
2019-03-20T01:25:01.593Z,48.7
2019-03-20T01:30:02.195Z,48.7
2019-03-20T01:35:02.023Z,48.7
2019-03-20T01:40:02.283Z,48.2
2019-03-20T01:45:02.092Z,47.6
2019-03-20T01:50:01.829Z,48.2
2019-03-20T01:55:01.668Z,47.6
2019-03-20T02:00:01.819Z,48.2
2019-03-20T02:05:01.694Z,48.2
2019-03-20T02:10:01.731Z,48.2
2019-03-20T02:15:01.691Z,48.2
2019-03-20T02:20:01.773Z,47.6
2019-03-20T02:25:02.514Z,47.6
2019-03-20T02:30:02.474Z,48.2
2019-03-20T02:35:02.462Z,47.6
2019-03-20T02:40:01.911Z,48.2
2019-03-20T02:45:01.905Z,48.2
2019-03-20T02:50:01.978Z,47.6
2019-03-20T02:55:01.846Z,47.6
2019-03-20T03:00:02.045Z,47.6
2019-03-20T03:05:02.035Z,47.6
2019-03-20T03:10:02.079Z,47.6
2019-03-20T03:15:01.875Z,47.6
2019-03-20T03:20:02.101Z,47.1
2019-03-20T03:25:02.001Z,47.6
2019-03-20T03:30:02.463Z,47.6
2019-03-20T03:35:01.648Z,47.6
2019-03-20T03:40:01.840Z,47.6
2019-03-20T03:45:01.928Z,46.5
2019-03-20T03:50:01.944Z,46.5
2019-03-20T03:55:01.994Z,46.5
2019-03-20T04:00:02.106Z,46.5
2019-03-20T04:05:02.126Z,46.5
2019-03-20T04:10:01.894Z,46.5
2019-03-20T04:15:01.814Z,46.5
2019-03-20T04:20:02.396Z,46.5
2019-03-20T04:25:02.371Z,46.5
2019-03-20T04:30:01.908Z,46.5
2019-03-20T04:35:01.868Z,46.5
2019-03-20T04:40:02.145Z,46.5
2019-03-20T04:45:01.893Z,46.5
2019-03-20T04:50:01.682Z,46.5
2019-03-20T04:55:01.640Z,46.5
2019-03-20T05:00:02.733Z,46.5
2019-03-20T05:05:02.396Z,46.5
2019-03-20T05:10:01.910Z,45.5
2019-03-20T05:15:01.759Z,46
2019-03-20T05:20:02.409Z,45.5
2019-03-20T05:25:02.438Z,46.5
2019-03-20T05:30:02.336Z,46
2019-03-20T05:35:02.225Z,46.5
2019-03-20T05:40:01.732Z,46.5
2019-03-20T05:45:01.741Z,46.5
2019-03-20T05:50:01.706Z,46.5
2019-03-20T05:55:01.614Z,46.5
2019-03-20T06:00:01.648Z,47.1
2019-03-20T06:05:01.681Z,46.5
2019-03-20T06:10:01.666Z,47.1
2019-03-20T06:15:01.539Z,46.5
2019-03-20T06:20:02.096Z,46.5
2019-03-20T06:25:01.995Z,46.5
2019-03-20T06:30:02.042Z,46.5
2019-03-20T06:35:01.705Z,46.5
2019-03-20T06:40:01.826Z,46.5
2019-03-20T06:45:01.677Z,47.1
2019-03-20T06:50:02.408Z,47.1
2019-03-20T06:55:02.424Z,47.6
2019-03-20T07:00:01.952Z,47.6
2019-03-20T07:05:01.928Z,47.6
2019-03-20T07:10:01.983Z,47.6
2019-03-20T07:15:01.923Z,47.6
2019-03-20T07:20:02.523Z,48.2
2019-03-20T07:25:02.490Z,48.7
2019-03-20T07:30:02.511Z,48.2
2019-03-20T07:35:02.507Z,48.2
2019-03-20T07:40:02.518Z,48.7
2019-03-20T07:45:01.557Z,49.2
2019-03-20T07:50:02.409Z,49.2
2019-03-20T07:55:02.423Z,49.2
2019-03-20T08:00:02.534Z,49.8
2019-03-20T08:05:02.542Z,49.8
2019-03-20T08:10:02.264Z,50.3
2019-03-20T08:15:02.277Z,49.8
2019-03-20T08:20:01.656Z,50.3
2019-03-20T08:25:01.586Z,50.3
2019-03-20T08:30:02.273Z,50.3
2019-03-20T08:35:02.154Z,50.8
2019-03-20T08:40:02.349Z,51.4
2019-03-20T08:45:02.430Z,50.8
2019-03-20T08:50:01.935Z,50.8
2019-03-20T08:55:01.968Z,51.4
2019-03-20T09:00:01.984Z,50.8
2019-03-20T09:05:02.064Z,51.9
2019-03-20T09:10:02.177Z,51.9
2019-03-20T09:15:02.460Z,51.9
2019-03-20T09:20:02.087Z,51.9
2019-03-20T09:25:02.132Z,51.9
2019-03-20T09:30:02.284Z,51.9
2019-03-20T09:35:02.236Z,52.5
2019-03-20T09:40:02.014Z,52.5
2019-03-20T09:45:01.869Z,51.9
2019-03-20T09:50:02.018Z,51.9
2019-03-20T09:55:02.081Z,52.5
2019-03-20T10:00:02.442Z,53
2019-03-20T10:05:01.551Z,52.5
2019-03-20T10:10:02.103Z,52.5
2019-03-20T10:15:02.048Z,53
2019-03-20T10:20:02.175Z,53
2019-03-20T10:25:02.108Z,53
2019-03-20T10:30:02.235Z,53
2019-03-20T10:35:02.244Z,54.1
2019-03-20T10:40:02.299Z,53.5
2019-03-20T10:45:02.386Z,53
2019-03-20T10:50:02.119Z,53
2019-03-20T10:55:01.911Z,53.5
2019-03-20T11:00:02.473Z,53.5
2019-03-20T11:05:01.578Z,54.1
2019-03-20T11:10:02.163Z,54.1
2019-03-20T11:15:02.228Z,54.1
2019-03-20T11:20:01.875Z,55.1
2019-03-20T11:25:01.894Z,54.6
2019-03-20T11:30:02.439Z,55.7
2019-03-20T11:35:01.513Z,55.1
2019-03-20T11:40:02.131Z,55.1
2019-03-20T11:45:02.085Z,55.1
2019-03-20T11:50:01.750Z,55.1
2019-03-20T11:55:01.740Z,55.1
2019-03-20T12:00:02.333Z,55.7
2019-03-20T12:05:02.005Z,55.7
2019-03-20T12:10:02.284Z,55.7
2019-03-20T12:15:02.273Z,55.1
2019-03-20T12:20:02.359Z,56.2
2019-03-20T12:25:02.469Z,55.7
2019-03-20T12:30:02.268Z,56.2
2019-03-20T12:35:02.263Z,56.8
2019-03-20T12:40:01.969Z,56.2
2019-03-20T12:45:01.912Z,56.2
2019-03-20T12:50:01.968Z,56.2
2019-03-20T12:55:02.093Z,57.3
2019-03-20T13:00:02.207Z,57.3
2019-03-20T13:05:02.163Z,57.8
2019-03-20T13:10:03.117Z,57.8
2019-03-20T13:15:02.421Z,57.3
2019-03-20T13:20:02.079Z,57.8
2019-03-20T13:25:02.219Z,58.4
2019-03-20T13:30:01.963Z,59.5
2019-03-20T13:35:01.719Z,59.5
2019-03-20T13:40:01.860Z,60
2019-03-20T13:45:01.982Z,60.5
2019-03-20T13:50:01.662Z,61.1
2019-03-20T13:55:01.837Z,61.6
2019-03-20T14:00:01.605Z,60.5
2019-03-20T14:05:01.714Z,61.1
2019-03-20T14:10:01.920Z,59.5
2019-03-20T14:15:01.961Z,60.5
2019-03-20T14:20:01.890Z,60.5
2019-03-20T14:25:02.017Z,61.6
2019-03-20T14:30:02.416Z,61.6
2019-03-20T14:35:01.588Z,62.7
2019-03-20T14:40:01.805Z,62.7
2019-03-20T14:45:01.949Z,62.1
2019-03-20T14:50:01.790Z,61.6
2019-03-20T14:55:01.878Z,61.6
2019-03-20T15:00:01.971Z,62.1
2019-03-20T15:05:02.224Z,62.1
2019-03-20T15:10:02.184Z,62.1
2019-03-20T15:15:02.332Z,61.6
2019-03-20T15:20:02.319Z,60.5
2019-03-20T15:25:02.292Z,59.5
2019-03-20T15:30:01.852Z,58.4
2019-03-20T15:35:02.059Z,58.4
2019-03-20T15:40:02.263Z,58.4
2019-03-20T15:45:02.492Z,57.3
2019-03-20T15:50:01.694Z,57.3
2019-03-20T15:55:01.808Z,57.3
2019-03-20T16:00:01.860Z,56.8
2019-03-20T16:05:01.951Z,57.3
2019-03-20T16:10:01.647Z,56.8
2019-03-20T16:15:01.801Z,57.3
2019-03-20T16:20:02.163Z,57.3
2019-03-20T16:25:02.190Z,57.3
2019-03-20T16:30:01.764Z,57.3
2019-03-20T16:35:01.959Z,57.3
2019-03-20T16:40:02.509Z,57.3
2019-03-20T16:45:01.524Z,57.3
2019-03-20T16:50:01.738Z,57.3
2019-03-20T16:55:01.893Z,57.3
2019-03-20T17:00:01.975Z,57.3
2019-03-20T17:05:01.891Z,57.8
2019-03-20T17:10:01.700Z,57.3
2019-03-20T17:15:02.119Z,57.3
2019-03-20T17:20:02.298Z,57.3
2019-03-20T17:25:02.336Z,57.3
2019-03-20T17:30:02.257Z,57.3
2019-03-20T17:35:02.236Z,57.3
2019-03-20T17:40:02.474Z,57.3
2019-03-20T17:45:02.538Z,57.3
2019-03-20T17:50:01.763Z,57.3
2019-03-20T17:55:01.884Z,57.3
2019-03-20T18:00:02.233Z,57.3
2019-03-20T18:05:02.664Z,57.3
2019-03-20T18:10:01.759Z,57.3
2019-03-20T18:15:01.649Z,57.3
2019-03-20T18:20:02.566Z,57.3
2019-03-20T18:25:01.529Z,56.8
2019-03-20T18:30:02.422Z,56.8
2019-03-20T18:35:02.501Z,56.2
2019-03-20T18:40:02.033Z,56.2
2019-03-20T18:45:02.249Z,56.8
2019-03-20T18:50:01.838Z,56.2
2019-03-20T18:55:01.960Z,55.1
2019-03-20T19:00:01.666Z,55.1
2019-03-20T19:05:01.783Z,55.7
2019-03-20T19:10:01.832Z,56.2
2019-03-20T19:15:01.938Z,56.2
2019-03-20T19:20:01.701Z,55.7
2019-03-20T19:25:02.307Z,56.2
2019-03-20T19:30:02.137Z,55.7
2019-03-20T19:35:02.029Z,55.7
2019-03-20T19:40:01.743Z,56.2
2019-03-20T19:45:01.759Z,55.7
2019-03-20T19:50:02.061Z,56.2
2019-03-20T19:55:02.112Z,56.2
2019-03-20T20:00:01.733Z,56.2
2019-03-20T20:05:01.843Z,56.2
2019-03-20T20:10:02.273Z,55.7
2019-03-20T20:15:02.068Z,55.7
2019-03-20T20:20:02.343Z,56.2
2019-03-20T20:25:02.443Z,55.7
2019-03-20T20:30:02.151Z,55.7
2019-03-20T20:35:02.280Z,55.7
2019-03-20T20:40:02.261Z,56.2
2019-03-20T20:45:02.312Z,56.2
2019-03-20T20:50:02.368Z,55.7
2019-03-20T20:55:02.346Z,55.7
2019-03-20T21:00:01.712Z,56.2
2019-03-20T21:05:01.815Z,56.2
2019-03-20T21:10:02.409Z,55.7
2019-03-20T21:15:02.473Z,55.7
2019-03-20T21:20:02.155Z,55.7
2019-03-20T21:25:02.276Z,55.7
2019-03-20T21:30:01.723Z,55.1
2019-03-20T21:35:01.716Z,55.7
2019-03-20T21:40:02.262Z,55.1
2019-03-20T21:45:02.406Z,55.1
2019-03-20T21:50:02.393Z,55.1
2019-03-20T21:55:02.443Z,54.6
2019-03-20T22:00:02.377Z,54.1
2019-03-20T22:05:01.836Z,55.1
2019-03-20T22:10:01.929Z,55.1
2019-03-20T22:15:02.031Z,54.6
2019-03-20T22:20:01.926Z,54.1
2019-03-20T22:25:02.062Z,54.1
2019-03-20T22:30:01.707Z,55.1
2019-03-20T22:35:01.763Z,54.1
2019-03-20T22:40:01.825Z,54.1
2019-03-20T22:45:01.625Z,55.1
2019-03-20T22:50:02.436Z,55.1
2019-03-20T22:55:02.460Z,55.1
2019-03-20T23:00:02.274Z,55.1
2019-03-20T23:05:02.345Z,55.1
2019-03-20T23:10:02.463Z,55.7
2019-03-20T23:15:01.552Z,54.1
2019-03-20T23:20:01.776Z,55.1
2019-03-20T23:25:01.821Z,55.1
2019-03-20T23:30:01.575Z,55.1
2019-03-20T23:35:01.646Z,55.1
2019-03-20T23:40:01.856Z,54.6
2019-03-20T23:45:01.898Z,55.1
2019-03-20T23:50:02.542Z,55.7
2019-03-20T23:55:02.446Z,55.1
